createdAt,value
2022-08-22T00:00:13.456Z,5.32
2022-08-22T00:01:23.933Z,5.50
2022-08-22T00:02:34.285Z,5.22
2022-08-22T00:02:55.978Z,5.78
2022-08-22T00:02:56.596Z,5.13
2022-08-22T00:02:58.075Z,4.93
2022-08-22T00:03:01.345Z,6.38
2022-08-22T00:03:52.722Z,4.82
2022-08-22T00:05:01.152Z,5.38
2022-08-22T00:06:09.974Z,5.55
2022-08-22T00:07:39.047Z,5.38
2022-08-22T00:08:55.961Z,5.30
2022-08-22T00:10:10.579Z,4.60
2022-08-22T00:11:31.687Z,4.43
2022-08-22T00:12:40.539Z,4.75
2022-08-22T00:13:40.145Z,5.20
2022-08-22T00:14:47.057Z,4.80
2022-08-22T00:16:09.235Z,4.82
2022-08-22T00:17:43.179Z,4.90
2022-08-22T00:18:54.124Z,4.72
2022-08-22T00:20:16.486Z,4.50
2022-08-22T00:21:32.808Z,4.90
2022-08-22T00:22:29.467Z,5.28
2022-08-22T00:23:44.878Z,4.38
2022-08-22T00:25:25.879Z,4.35
2022-08-22T00:26:45.770Z,4.20
2022-08-22T00:27:56.867Z,4.78
2022-08-22T00:29:01.240Z,4.32
2022-08-22T00:30:05.710Z,3.92
2022-08-22T00:31:19.332Z,4.78
2022-08-22T00:32:27.117Z,4.75
2022-08-22T00:33:42.558Z,4.43
2022-08-22T00:34:53.950Z,3.67
2022-08-22T00:36:00.748Z,3.72
2022-08-22T00:37:07.236Z,3.75
2022-08-22T00:38:15.846Z,4.22
2022-08-22T00:39:24.581Z,4.43
2022-08-22T00:40:46.921Z,3.67
2022-08-22T00:42:08.264Z,4.18
2022-08-22T00:43:38.006Z,4.10
2022-08-22T00:44:43.508Z,4.13
2022-08-22T00:46:00.552Z,4.68
2022-08-22T00:47:10.951Z,4.32
2022-08-22T00:48:32.329Z,4.07
2022-08-22T00:49:41.053Z,3.53
2022-08-22T00:51:11.807Z,3.92
2022-08-22T00:52:11.263Z,4.35
2022-08-22T00:53:41.914Z,4.82
2022-08-22T00:55:10.662Z,3.95
2022-08-22T00:56:35.304Z,4.63
2022-08-22T00:57:50.254Z,4.72
2022-08-22T00:58:52.698Z,5.32
2022-08-22T01:00:56.103Z,5.55
2022-08-22T01:02:01.703Z,5.78
2022-08-22T01:03:26.812Z,5.47
2022-08-22T01:04:38.787Z,5.50
2022-08-22T01:06:05.613Z,6.65
2022-08-22T01:07:38.003Z,5.40
2022-08-22T01:08:53.212Z,6.03
2022-08-22T01:10:10.425Z,5.53
2022-08-22T01:11:31.551Z,5.25
2022-08-22T01:13:00.266Z,5.20
2022-08-22T01:14:34.184Z,4.82
2022-08-22T01:15:36.620Z,5.57
2022-08-22T01:17:05.346Z,4.80
2022-08-22T01:18:29.328Z,5.40
2022-08-22T01:19:44.129Z,5.93
2022-08-22T01:20:53.034Z,5.72
2022-08-22T01:22:14.480Z,5.60
2022-08-22T01:23:32.819Z,5.53
2022-08-22T01:25:04.404Z,5.20
2022-08-22T01:26:26.233Z,5.28
2022-08-22T01:28:58.712Z,5.35
2022-08-22T01:30:12.840Z,5.65
2022-08-22T01:31:12.452Z,5.57
2022-08-22T01:32:36.838Z,5.03
2022-08-22T01:33:36.289Z,5.60
2022-08-22T01:34:54.074Z,5.97
2022-08-22T01:35:53.786Z,5.90
2022-08-22T01:36:56.016Z,5.20
2022-08-22T01:38:05.733Z,6.43
2022-08-22T01:39:27.974Z,5.90
2022-08-22T01:40:38.142Z,6.03
2022-08-22T01:42:03.172Z,6.20
2022-08-22T01:43:59.913Z,6.80
2022-08-22T01:45:14.067Z,5.95
2022-08-22T01:46:32.537Z,5.65
2022-08-22T01:47:39.330Z,5.35
2022-08-22T01:49:06.406Z,6.18
2022-08-22T01:50:39.893Z,5.93
2022-08-22T01:51:48.194Z,6.57
2022-08-22T01:52:50.885Z,6.57
2022-08-22T01:54:13.642Z,6.57
2022-08-22T01:55:14.380Z,6.40
2022-08-22T01:56:18.276Z,7.10
2022-08-22T01:57:15.547Z,6.97
2022-08-22T01:58:23.101Z,6.00
2022-08-22T01:59:34.095Z,6.35
2022-08-22T02:00:49.357Z,6.78
2022-08-22T02:02:01.930Z,6.53
2022-08-22T02:03:23.121Z,5.15
2022-08-22T02:04:34.482Z,6.35
2022-08-22T02:05:39.112Z,6.25
2022-08-22T02:06:44.613Z,6.03
2022-08-22T02:08:05.673Z,6.07
2022-08-22T02:09:10.733Z,5.55
2022-08-22T02:10:17.983Z,6.32
2022-08-22T02:11:43.758Z,6.40
2022-08-22T02:13:02.460Z,6.72
2022-08-22T02:14:24.607Z,6.28
2022-08-22T02:15:35.065Z,5.75
2022-08-22T02:16:41.313Z,5.97
2022-08-22T02:17:53.055Z,7.50
2022-08-22T02:19:14.419Z,5.78
2022-08-22T02:20:21.907Z,4.90
2022-08-22T02:21:44.131Z,6.20
2022-08-22T02:23:11.974Z,6.38
2022-08-22T02:24:26.700Z,6.32
2022-08-22T02:25:32.595Z,6.50
2022-08-22T02:26:41.414Z,6.93
2022-08-22T02:27:52.354Z,6.28
2022-08-22T02:29:07.987Z,6.32
2022-08-22T02:30:04.614Z,6.07
2022-08-22T02:31:16.829Z,6.32
2022-08-22T02:32:35.431Z,6.10
2022-08-22T02:33:37.914Z,5.88
2022-08-22T02:35:42.243Z,5.95
2022-08-22T02:37:05.437Z,5.50
2022-08-22T02:38:33.864Z,6.18
2022-08-22T02:39:36.988Z,6.10
2022-08-22T02:40:54.784Z,6.07
2022-08-22T02:42:15.993Z,5.90
2022-08-22T02:43:36.778Z,6.53
2022-08-22T02:44:38.255Z,7.70
2022-08-22T02:45:55.446Z,8.00
2022-08-22T02:47:00.962Z,7.93
2022-08-22T02:48:06.579Z,7.30
2022-08-22T02:49:12.693Z,6.78
2022-08-22T02:50:36.057Z,6.85
2022-08-22T02:51:55.720Z,8.30
2022-08-22T02:53:21.203Z,7.68
2022-08-22T02:54:27.849Z,8.85
2022-08-22T02:55:58.086Z,8.18
2022-08-22T02:57:24.604Z,6.97
2022-08-22T02:58:57.016Z,8.77
2022-08-22T03:00:27.745Z,6.28
2022-08-22T03:01:27.926Z,7.25
2022-08-22T03:02:44.455Z,6.75
2022-08-22T03:03:45.950Z,6.10
2022-08-22T03:04:42.688Z,7.40
2022-08-22T03:05:39.425Z,8.88
2022-08-22T03:07:03.025Z,7.78
2022-08-22T03:08:17.638Z,8.23
2022-08-22T03:09:28.718Z,6.43
2022-08-22T03:10:38.432Z,7.82
2022-08-22T03:11:40.267Z,7.22
2022-08-22T03:12:57.505Z,8.65
2022-08-22T03:14:11.895Z,7.90
2022-08-22T03:15:32.835Z,7.70
2022-08-22T03:16:40.225Z,7.70
2022-08-22T03:17:49.604Z,7.72
2022-08-22T03:18:59.271Z,8.07
2022-08-22T03:20:06.529Z,8.73
2022-08-22T03:21:25.430Z,8.32
2022-08-22T03:22:32.455Z,8.70
2022-08-22T03:23:55.026Z,7.78
2022-08-22T03:25:03.650Z,9.40
2022-08-22T03:26:19.055Z,7.50
2022-08-22T03:27:56.465Z,8.82
2022-08-22T03:29:00.405Z,7.90
2022-08-22T03:30:02.159Z,8.23
2022-08-22T03:31:13.850Z,9.05
2022-08-22T03:32:20.118Z,8.27
2022-08-22T03:33:29.414Z,7.82
2022-08-22T03:34:27.149Z,7.68
2022-08-22T03:35:28.689Z,8.55
2022-08-22T03:36:31.415Z,8.38
2022-08-22T03:37:43.188Z,8.63
2022-08-22T03:38:52.142Z,7.45
2022-08-22T03:39:51.577Z,8.38
2022-08-22T03:41:03.597Z,6.97
2022-08-22T03:42:15.873Z,6.68
2022-08-22T03:43:44.473Z,7.73
2022-08-22T03:45:14.596Z,7.13
2022-08-22T03:46:39.186Z,8.15
2022-08-22T03:47:50.976Z,8.00
2022-08-22T03:49:09.160Z,7.72
2022-08-22T03:50:14.823Z,7.65
2022-08-22T03:51:55.169Z,8.57
2022-08-22T03:53:19.534Z,8.30
2022-08-22T03:54:38.984Z,8.05
2022-08-22T03:56:09.647Z,7.60
2022-08-22T03:57:40.179Z,7.90
2022-08-22T03:59:00.817Z,7.18
2022-08-22T04:00:05.235Z,6.60
2022-08-22T04:01:08.422Z,7.47
2022-08-22T04:02:26.196Z,7.40
2022-08-22T04:03:55.663Z,9.82
2022-08-22T04:05:23.050Z,10.73
2022-08-22T04:06:49.482Z,9.30
2022-08-22T04:08:14.730Z,9.95
2022-08-22T04:09:11.573Z,11.02
2022-08-22T04:10:31.173Z,11.35
2022-08-22T04:11:42.867Z,10.55
2022-08-22T04:13:02.790Z,10.80
2022-08-22T04:14:24.294Z,12.18
2022-08-22T04:15:33.619Z,11.98
2022-08-22T04:16:51.611Z,12.00
2022-08-22T04:18:19.399Z,11.85
2022-08-22T04:19:45.228Z,11.25
2022-08-22T04:21:06.846Z,10.43
2022-08-22T04:22:31.349Z,9.00
2022-08-22T04:23:46.704Z,8.45
2022-08-22T04:24:52.153Z,8.95
2022-08-22T04:25:57.667Z,9.52
2022-08-22T04:27:14.797Z,8.95
2022-08-22T04:28:41.543Z,9.10
2022-08-22T04:30:22.966Z,11.30
2022-08-22T04:31:28.995Z,11.05
2022-08-22T04:32:25.595Z,12.10
2022-08-22T04:33:44.411Z,12.65
2022-08-22T04:34:48.917Z,11.95
2022-08-22T04:35:57.478Z,10.93
2022-08-22T04:37:04.384Z,10.25
2022-08-22T04:38:04.566Z,10.43
2022-08-22T04:39:10.233Z,10.70
2022-08-22T04:40:22.272Z,10.88
2022-08-22T04:41:26.135Z,9.63
2022-08-22T04:42:32.883Z,10.02
2022-08-22T04:43:41.842Z,9.43
2022-08-22T04:44:46.581Z,9.80
2022-08-22T04:45:50.409Z,10.18
2022-08-22T04:47:03.583Z,10.95
2022-08-22T04:48:30.192Z,10.73
2022-08-22T04:49:35.605Z,9.82
2022-08-22T04:50:43.341Z,10.40
2022-08-22T04:52:21.665Z,10.43
2022-08-22T04:53:42.476Z,10.80
2022-08-22T04:54:55.587Z,9.40
2022-08-22T04:55:56.756Z,9.23
2022-08-22T04:57:39.363Z,9.70
2022-08-22T04:58:35.989Z,8.73
2022-08-22T04:59:35.027Z,9.65
2022-08-22T05:00:44.915Z,9.23
2022-08-22T05:01:57.234Z,9.73
2022-08-22T05:02:57.647Z,8.30
2022-08-22T05:04:05.814Z,9.02
2022-08-22T05:05:13.281Z,9.38
2022-08-22T05:06:14.430Z,8.32
2022-08-22T05:07:15.776Z,9.45
2022-08-22T05:08:17.520Z,9.63
2022-08-22T05:09:22.355Z,8.57
2022-08-22T05:10:33.011Z,8.65
2022-08-22T05:11:31.338Z,9.02
2022-08-22T05:12:35.194Z,8.77
2022-08-22T05:13:39.272Z,9.65
2022-08-22T05:14:42.609Z,8.40
2022-08-22T05:15:44.040Z,8.23
2022-08-22T05:16:45.817Z,9.07
2022-08-22T05:17:44.245Z,8.00
2022-08-22T05:18:53.062Z,8.13
2022-08-22T05:19:54.836Z,7.70
2022-08-22T05:20:53.257Z,7.60
2022-08-22T05:21:51.731Z,7.78
2022-08-22T05:22:55.341Z,7.60
2022-08-22T05:23:57.512Z,7.82
2022-08-22T05:24:59.999Z,6.63
2022-08-22T05:27:00.976Z,6.97
2022-08-22T05:28:28.792Z,7.05
2022-08-22T05:29:29.885Z,6.88
2022-08-22T05:30:29.396Z,7.00
2022-08-22T05:31:34.846Z,7.00
2022-08-22T05:33:00.433Z,7.18
2022-08-22T05:34:04.638Z,6.78
2022-08-22T05:35:03.783Z,6.93
2022-08-22T05:36:12.076Z,7.65
2022-08-22T05:37:14.226Z,7.63
2022-08-22T05:38:15.869Z,7.60
2022-08-22T05:39:20.326Z,6.40
2022-08-22T05:40:24.729Z,6.78
2022-08-22T05:41:25.404Z,6.72
2022-08-22T05:42:31.608Z,6.07
2022-08-22T05:43:28.785Z,6.63
2022-08-22T05:44:30.596Z,6.47
2022-08-22T05:45:28.647Z,6.35
2022-08-22T05:47:06.537Z,6.30
2022-08-22T05:48:11.935Z,6.25
2022-08-22T05:49:24.432Z,5.95
2022-08-22T05:50:47.217Z,6.53
2022-08-22T05:52:06.117Z,5.63
2022-08-22T05:53:09.982Z,6.22
2022-08-22T05:54:16.468Z,6.53
2022-08-22T05:55:28.924Z,6.50
2022-08-22T05:56:34.657Z,6.88
2022-08-22T05:57:38.142Z,6.90
2022-08-22T05:58:43.544Z,6.93
2022-08-22T05:59:43.012Z,6.63
2022-08-22T06:00:45.310Z,6.88
2022-08-22T06:02:11.980Z,6.63
2022-08-22T06:03:37.031Z,7.00
2022-08-22T06:04:39.096Z,8.57
2022-08-22T06:05:40.578Z,8.43
2022-08-22T06:06:43.710Z,8.27
2022-08-22T06:07:45.476Z,8.95
2022-08-22T06:08:49.040Z,8.88
2022-08-22T06:09:48.414Z,8.57
2022-08-22T06:10:52.744Z,8.55
2022-08-22T06:11:56.529Z,9.15
2022-08-22T06:13:16.392Z,8.88
2022-08-22T06:14:49.644Z,8.07
2022-08-22T06:16:07.565Z,7.30
2022-08-22T06:17:20.223Z,7.43
2022-08-22T06:18:21.454Z,7.70
2022-08-22T06:19:20.307Z,8.95
2022-08-22T06:20:28.794Z,9.05
2022-08-22T06:21:39.507Z,8.88
2022-08-22T06:22:42.322Z,9.35
2022-08-22T06:24:38.452Z,8.65
2022-08-22T06:25:39.064Z,9.00
2022-08-22T06:26:40.177Z,9.15
2022-08-22T06:27:37.926Z,10.40
2022-08-22T06:28:55.058Z,10.05
2022-08-22T06:29:57.848Z,9.23
2022-08-22T06:30:57.039Z,10.40
2022-08-22T06:31:54.009Z,9.00
2022-08-22T06:33:00.926Z,9.43
2022-08-22T06:34:25.631Z,8.77
2022-08-22T06:35:24.572Z,8.65
2022-08-22T06:36:32.566Z,9.50
2022-08-22T06:37:42.789Z,9.45
2022-08-22T06:39:21.304Z,8.82
2022-08-22T06:40:19.001Z,8.63
2022-08-22T06:41:15.898Z,9.50
2022-08-22T06:42:17.447Z,9.27
2022-08-22T06:43:15.593Z,10.45
2022-08-22T06:44:16.250Z,10.35
2022-08-22T06:45:22.215Z,8.88
2022-08-22T06:46:21.464Z,8.57
2022-08-22T06:47:49.818Z,8.90
2022-08-22T06:48:48.803Z,7.82
2022-08-22T06:49:46.153Z,8.32
2022-08-22T06:50:45.623Z,8.13
2022-08-22T06:51:45.286Z,8.77
2022-08-22T06:53:17.472Z,8.48
2022-08-22T06:54:22.205Z,9.95
2022-08-22T06:55:19.491Z,9.52
2022-08-22T06:56:23.943Z,9.85
2022-08-22T06:57:43.690Z,9.48
2022-08-22T06:58:46.375Z,10.55
2022-08-22T06:59:44.006Z,11.13
2022-08-22T07:00:42.570Z,12.15
2022-08-22T07:01:49.322Z,11.55
2022-08-22T07:03:00.403Z,12.75
2022-08-22T07:04:06.219Z,11.82
2022-08-22T07:05:03.030Z,12.32
2022-08-22T07:06:00.323Z,11.43
2022-08-22T07:07:01.019Z,11.82
2022-08-22T07:07:58.071Z,11.55
2022-08-22T07:08:56.508Z,11.27
2022-08-22T07:09:57.515Z,11.73
2022-08-22T07:11:15.363Z,11.52
2022-08-22T07:12:20.221Z,12.25
2022-08-22T07:13:19.902Z,11.65
2022-08-22T07:14:24.838Z,12.57
2022-08-22T07:15:35.544Z,10.32
2022-08-22T07:16:40.315Z,10.95
2022-08-22T07:17:40.601Z,11.13
2022-08-22T07:18:49.005Z,10.50
2022-08-22T07:19:59.913Z,10.20
2022-08-22T07:21:04.391Z,10.35
2022-08-22T07:22:17.420Z,10.18
2022-08-22T07:23:31.668Z,11.23
2022-08-22T07:24:32.789Z,12.30
2022-08-22T07:25:31.785Z,11.10
2022-08-22T07:26:33.811Z,11.30
2022-08-22T07:27:31.419Z,11.00
2022-08-22T07:28:51.626Z,11.55
2022-08-22T07:30:14.030Z,10.55
2022-08-22T07:31:29.290Z,9.57
2022-08-22T07:32:48.711Z,11.38
2022-08-22T07:33:49.659Z,11.65
2022-08-22T07:34:55.220Z,10.98
2022-08-22T07:36:00.109Z,10.95
2022-08-22T07:37:03.717Z,11.48
2022-08-22T07:38:28.874Z,10.30
2022-08-22T07:39:37.153Z,10.98
2022-08-22T07:40:48.456Z,10.95
2022-08-22T07:42:03.476Z,11.52
2022-08-22T07:43:18.439Z,11.68
2022-08-22T07:44:21.940Z,10.50
2022-08-22T07:45:32.061Z,10.35
2022-08-22T07:46:45.863Z,10.98
2022-08-22T07:48:03.878Z,10.65
2022-08-22T07:49:15.451Z,11.05
2022-08-22T07:50:18.256Z,10.80
2022-08-22T07:51:24.361Z,11.18
2022-08-22T07:52:22.296Z,11.68
2022-08-22T07:53:18.917Z,10.27
2022-08-22T07:54:39.055Z,10.30
2022-08-22T07:55:49.361Z,9.88
2022-08-22T07:57:09.629Z,10.60
2022-08-22T07:58:08.046Z,9.50
2022-08-22T07:59:14.728Z,10.20
2022-08-22T08:00:17.570Z,11.57
2022-08-22T08:01:21.152Z,10.00
2022-08-22T08:02:19.521Z,9.93
2022-08-22T08:03:17.350Z,8.65
2022-08-22T08:04:20.757Z,9.30
2022-08-22T08:05:19.195Z,10.40
2022-08-22T08:06:16.015Z,10.38
2022-08-22T08:07:16.015Z,9.63
2022-08-22T08:08:23.383Z,10.02
2022-08-22T08:09:21.189Z,9.43
2022-08-22T08:10:24.137Z,9.65
2022-08-22T08:11:26.138Z,9.77
2022-08-22T08:12:40.012Z,9.45
2022-08-22T08:13:42.053Z,10.00
2022-08-22T08:14:42.621Z,10.57
2022-08-22T08:15:42.967Z,9.88
2022-08-22T08:17:10.701Z,10.05
2022-08-22T08:18:19.161Z,10.38
2022-08-22T08:19:19.043Z,9.52
2022-08-22T08:20:19.863Z,9.50
2022-08-22T08:21:27.681Z,9.55
2022-08-22T08:22:26.999Z,9.35
2022-08-22T08:23:25.224Z,9.23
2022-08-22T08:24:44.110Z,9.52
2022-08-22T08:25:58.433Z,9.63
2022-08-22T08:27:18.836Z,9.25
2022-08-22T08:28:34.316Z,9.20
2022-08-22T08:29:32.831Z,9.13
2022-08-22T08:30:32.309Z,8.85
2022-08-22T08:31:35.499Z,10.10
2022-08-22T08:32:35.325Z,8.75
2022-08-22T08:33:32.328Z,9.02
2022-08-22T08:34:32.529Z,8.32
2022-08-22T08:36:57.982Z,8.43
2022-08-22T08:38:02.090Z,9.05
2022-08-22T08:39:12.601Z,7.82
2022-08-22T08:40:37.974Z,9.05
2022-08-22T08:41:34.582Z,8.40
2022-08-22T08:43:01.977Z,8.25
2022-08-22T08:44:43.243Z,8.13
2022-08-22T08:45:42.680Z,7.68
2022-08-22T08:47:04.093Z,8.15
2022-08-22T08:48:21.947Z,7.63
2022-08-22T08:49:33.631Z,7.88
2022-08-22T08:51:09.826Z,7.70
2022-08-22T08:52:24.579Z,7.90
2022-08-22T08:53:43.304Z,7.75
2022-08-22T08:54:46.124Z,7.15
2022-08-22T08:55:54.303Z,7.80
2022-08-22T08:57:03.344Z,7.35
2022-08-22T08:58:33.717Z,8.18
2022-08-22T08:59:33.176Z,7.97
2022-08-22T09:00:42.115Z,7.75
2022-08-22T09:01:45.629Z,8.02
2022-08-22T09:03:15.444Z,7.85
2022-08-22T09:04:54.510Z,8.13
2022-08-22T09:05:56.084Z,7.60
2022-08-22T09:07:08.222Z,9.55
2022-08-22T09:08:31.131Z,7.47
2022-08-22T09:09:54.886Z,7.57
2022-08-22T09:13:12.258Z,8.98
2022-08-22T09:14:16.517Z,8.52
2022-08-22T09:15:37.747Z,7.65
2022-08-22T09:16:51.884Z,7.85
2022-08-22T09:18:26.993Z,7.57
2022-08-22T09:20:15.420Z,7.40
2022-08-22T09:22:15.025Z,7.38
2022-08-22T09:23:48.787Z,7.97
2022-08-22T09:24:59.047Z,6.93
2022-08-22T09:26:07.960Z,7.25
2022-08-22T09:27:13.282Z,6.22
2022-08-22T09:28:29.550Z,7.43
2022-08-22T09:29:54.630Z,7.18
2022-08-22T09:31:17.024Z,6.80
2022-08-22T09:32:28.765Z,6.68
2022-08-22T09:33:35.290Z,7.60
2022-08-22T09:34:47.741Z,6.97
2022-08-22T09:36:05.059Z,7.03
2022-08-22T09:37:26.384Z,6.72
2022-08-22T09:38:39.087Z,7.72
2022-08-22T09:39:46.963Z,6.43
2022-08-22T09:41:02.313Z,7.32
2022-08-22T09:42:18.556Z,7.40
2022-08-22T09:43:22.777Z,7.38
2022-08-22T09:44:42.461Z,6.55
2022-08-22T09:45:52.466Z,7.53
2022-08-22T09:47:02.477Z,7.50
2022-08-22T09:48:17.754Z,7.47
2022-08-22T09:49:27.543Z,6.85
2022-08-22T09:50:52.773Z,6.22
2022-08-22T09:52:33.868Z,6.80
2022-08-22T09:53:46.763Z,7.18
2022-08-22T09:56:00.766Z,6.70
2022-08-22T09:58:18.220Z,8.60
2022-08-22T09:59:18.662Z,8.00
2022-08-22T10:00:30.432Z,8.37
2022-08-22T10:01:39.060Z,7.70
2022-08-22T10:02:51.841Z,8.10
2022-08-22T10:04:12.984Z,7.50
2022-08-22T10:05:44.206Z,7.35
2022-08-22T10:07:25.171Z,8.95
2022-08-22T10:08:34.629Z,9.52
2022-08-22T10:09:48.903Z,7.10
2022-08-22T10:11:12.754Z,9.13
2022-08-22T10:12:15.225Z,9.27
2022-08-22T10:13:32.388Z,8.20
2022-08-22T10:15:01.688Z,7.95
2022-08-22T10:16:17.941Z,8.05
2022-08-22T10:17:30.611Z,7.70
2022-08-22T10:18:35.152Z,8.13
2022-08-22T10:19:40.485Z,8.48
2022-08-22T10:20:52.938Z,7.30
2022-08-22T10:22:23.105Z,7.57
2022-08-22T10:23:24.039Z,8.35
2022-08-22T10:24:59.989Z,8.32
2022-08-22T10:26:29.346Z,7.53
2022-08-22T10:27:52.718Z,7.88
2022-08-22T10:29:17.818Z,11.77
2022-08-22T10:30:20.548Z,10.23
2022-08-22T10:31:58.874Z,7.97
2022-08-22T10:33:13.005Z,9.60
2022-08-22T10:34:16.460Z,7.85
2022-08-22T10:35:38.905Z,9.32
2022-08-22T10:36:41.785Z,9.00
2022-08-22T10:38:52.366Z,7.95
2022-08-22T10:40:24.591Z,10.18
2022-08-22T10:41:47.024Z,8.10
2022-08-22T10:43:06.820Z,7.85
2022-08-22T10:44:21.621Z,7.00
2022-08-22T10:45:35.862Z,7.45
2022-08-22T10:46:50.187Z,9.88
2022-08-22T10:47:54.420Z,10.32
2022-08-22T10:50:08.587Z,7.60
2022-08-22T10:51:18.751Z,8.20
2022-08-22T10:52:31.351Z,7.95
2022-08-22T10:53:52.109Z,8.35
2022-08-22T10:55:09.598Z,7.85
2022-08-22T10:56:22.022Z,8.32
2022-08-22T10:57:28.018Z,8.23
2022-08-22T10:58:28.086Z,7.50
2022-08-22T10:59:38.127Z,7.38
2022-08-22T11:00:49.705Z,7.55
2022-08-22T11:02:26.502Z,8.20
2022-08-22T11:04:02.223Z,9.23
2022-08-22T11:05:19.763Z,8.50
2022-08-22T11:06:24.387Z,8.52
2022-08-22T11:07:48.885Z,8.35
2022-08-22T11:09:08.766Z,8.63
2022-08-22T11:10:32.153Z,8.02
2022-08-22T11:12:01.975Z,7.88
2022-08-22T11:13:18.527Z,7.60
2022-08-22T11:14:44.746Z,6.93
2022-08-22T11:16:04.293Z,7.22
2022-08-22T11:17:28.945Z,7.45
2022-08-22T11:19:02.092Z,7.53
2022-08-22T11:20:09.171Z,7.43
2022-08-22T11:21:46.707Z,7.50
2022-08-22T11:23:17.090Z,7.20
2022-08-22T11:24:35.226Z,6.88
2022-08-22T11:25:53.791Z,7.57
2022-08-22T11:26:57.647Z,6.93
2022-08-22T11:28:18.149Z,6.82
2022-08-22T11:29:26.364Z,6.28
2022-08-22T11:30:44.685Z,6.38
2022-08-22T11:31:53.287Z,7.50
2022-08-22T11:33:02.185Z,7.68
2022-08-22T11:34:20.409Z,6.97
2022-08-22T11:35:25.864Z,7.22
2022-08-22T11:36:30.914Z,6.82
2022-08-22T11:37:43.658Z,7.13
2022-08-22T11:39:05.461Z,6.72
2022-08-22T11:40:19.303Z,7.07
2022-08-22T11:41:26.745Z,6.68
2022-08-22T11:43:03.168Z,6.70
2022-08-22T11:44:16.207Z,7.22
2022-08-22T11:45:21.858Z,6.72
2022-08-22T11:46:25.548Z,7.30
2022-08-22T11:47:26.698Z,6.93
2022-08-22T11:48:48.615Z,6.88
2022-08-22T11:49:48.053Z,7.38
2022-08-22T11:51:03.255Z,7.03
2022-08-22T11:52:13.502Z,7.10
2022-08-22T11:53:42.103Z,6.65
2022-08-22T11:55:00.922Z,7.47
2022-08-22T11:56:10.586Z,7.65
2022-08-22T11:57:34.351Z,7.85
2022-08-22T11:58:34.176Z,7.60
2022-08-22T12:00:02.949Z,7.25
2022-08-22T12:01:17.219Z,7.35
2022-08-22T12:02:29.290Z,7.60
2022-08-22T12:03:39.889Z,7.57
2022-08-22T12:04:44.242Z,7.13
2022-08-22T12:06:19.877Z,7.35
2022-08-22T12:07:37.881Z,7.80
2022-08-22T12:08:35.259Z,7.55
2022-08-22T12:09:56.674Z,7.68
2022-08-22T12:11:03.206Z,7.78
2022-08-22T12:12:20.863Z,7.63
2022-08-22T12:14:08.830Z,7.43
2022-08-22T12:15:21.652Z,7.85
2022-08-22T12:16:27.275Z,7.15
2022-08-22T12:17:55.325Z,7.15
2022-08-22T12:19:02.312Z,7.28
2022-08-22T12:20:17.020Z,8.35
2022-08-22T12:21:41.512Z,7.53
2022-08-22T12:23:08.864Z,8.05
2022-08-22T12:24:24.795Z,8.15
2022-08-22T12:25:44.454Z,8.48
2022-08-22T12:26:59.428Z,7.18
2022-08-22T12:28:15.925Z,7.95
2022-08-22T12:29:53.007Z,7.90
2022-08-22T12:30:59.702Z,8.23
2022-08-22T12:32:45.861Z,7.35
2022-08-22T12:34:07.405Z,9.00
2022-08-22T12:35:29.972Z,7.80
2022-08-22T12:36:43.495Z,8.85
2022-08-22T12:38:00.080Z,9.10
2022-08-22T12:39:27.492Z,7.65
2022-08-22T12:40:36.576Z,9.07
2022-08-22T12:42:01.373Z,8.35
2022-08-22T12:43:13.337Z,7.22
2022-08-22T12:44:17.185Z,8.20
2022-08-22T12:45:31.801Z,8.10
2022-08-22T12:46:47.326Z,8.32
2022-08-22T12:48:15.031Z,8.15
2022-08-22T12:49:44.967Z,7.25
2022-08-22T12:50:52.062Z,8.93
2022-08-22T12:52:04.287Z,7.63
2022-08-22T12:53:20.441Z,8.27
2022-08-22T12:54:57.996Z,8.10
2022-08-22T12:56:05.305Z,7.68
2022-08-22T12:57:23.781Z,7.25
2022-08-22T12:58:37.313Z,7.55
2022-08-22T12:59:40.520Z,8.13
2022-08-22T13:00:43.945Z,7.95
2022-08-22T13:01:48.292Z,8.73
2022-08-22T13:02:46.344Z,9.50
2022-08-22T13:03:53.494Z,8.30
2022-08-22T13:05:08.844Z,9.05
2022-08-22T13:06:37.840Z,9.43
2022-08-22T13:07:37.110Z,7.68
2022-08-22T13:08:45.812Z,8.38
2022-08-22T13:09:52.507Z,8.38
2022-08-22T13:10:58.287Z,8.25
2022-08-22T13:12:00.388Z,8.02
2022-08-22T13:13:00.277Z,7.75
2022-08-22T13:14:02.433Z,8.10
2022-08-22T13:15:10.886Z,8.02
2022-08-22T13:16:11.677Z,8.07
2022-08-22T13:17:24.390Z,8.52
2022-08-22T13:18:31.146Z,8.85
2022-08-22T13:19:32.500Z,8.98
2022-08-22T13:20:36.018Z,9.70
2022-08-22T13:21:38.737Z,8.07
2022-08-22T13:22:40.345Z,8.63
2022-08-22T13:23:47.148Z,9.77
2022-08-22T13:24:52.808Z,8.55
2022-08-22T13:26:10.589Z,8.52
2022-08-22T13:27:16.560Z,7.88
2022-08-22T13:28:17.971Z,8.57
2022-08-22T13:29:26.145Z,8.93
2022-08-22T13:30:37.733Z,8.65
2022-08-22T13:31:37.127Z,8.52
2022-08-22T13:32:33.893Z,8.23
2022-08-22T13:33:39.092Z,6.30
2022-08-22T13:34:43.555Z,5.43
2022-08-22T13:36:06.925Z,5.47
2022-08-22T13:37:15.412Z,6.35
2022-08-22T13:38:25.507Z,7.65
2022-08-22T13:39:29.024Z,6.63
2022-08-22T13:40:29.493Z,6.63
2022-08-22T13:41:31.496Z,6.35
2022-08-22T13:42:31.386Z,7.63
2022-08-22T13:43:33.880Z,8.27
2022-08-22T13:44:37.818Z,9.13
2022-08-22T13:45:38.652Z,4.68
2022-08-22T13:46:44.516Z,4.53
2022-08-22T13:48:03.384Z,8.68
2022-08-22T13:49:04.894Z,8.48
2022-08-22T13:50:14.197Z,8.60
2022-08-22T13:51:36.478Z,10.40
2022-08-22T13:52:42.425Z,12.40
2022-08-22T13:54:00.578Z,12.63
2022-08-22T13:55:12.210Z,13.88
2022-08-22T13:56:17.773Z,13.68
2022-08-22T13:57:45.595Z,14.98
2022-08-22T13:59:59.581Z,13.23
2022-08-22T14:01:28.524Z,15.52
2022-08-22T14:02:58.318Z,14.57
2022-08-22T14:03:57.991Z,14.80
2022-08-22T14:05:01.682Z,15.32
2022-08-22T14:06:32.717Z,17.25
2022-08-22T14:07:29.877Z,16.48
2022-08-22T14:08:33.672Z,15.75
2022-08-22T14:09:48.213Z,16.08
2022-08-22T14:10:55.651Z,15.77
2022-08-22T14:12:21.037Z,15.65
2022-08-22T14:14:04.010Z,13.35
2022-08-22T14:15:04.264Z,13.88
2022-08-22T14:16:04.249Z,16.48
2022-08-22T14:17:01.867Z,16.48
2022-08-22T14:18:15.925Z,15.05
2022-08-22T14:19:23.725Z,14.82
2022-08-22T14:20:32.449Z,14.73
2022-08-22T14:21:51.541Z,15.95
2022-08-22T14:23:19.833Z,15.27
2022-08-22T14:24:27.036Z,15.60
2022-08-22T14:25:26.967Z,14.65
2022-08-22T14:26:37.510Z,16.98
2022-08-22T14:27:52.398Z,15.65
2022-08-22T14:28:49.449Z,16.88
2022-08-22T14:29:51.916Z,16.80
2022-08-22T14:32:01.810Z,15.57
2022-08-22T14:33:21.383Z,15.45
2022-08-22T14:34:19.129Z,15.32
2022-08-22T14:35:35.224Z,14.75
2022-08-22T14:36:56.317Z,13.77
2022-08-22T14:37:58.782Z,14.82
2022-08-22T14:39:20.911Z,14.18
2022-08-22T14:40:35.019Z,14.60
2022-08-22T14:43:06.914Z,15.07
2022-08-22T14:44:12.616Z,17.35
2022-08-22T14:45:24.657Z,16.08
2022-08-22T14:46:35.162Z,15.57
2022-08-22T14:48:29.241Z,16.10
2022-08-22T14:49:18.967Z,15.93
2022-08-22T14:50:59.852Z,16.38
2022-08-22T14:52:02.262Z,15.80
2022-08-22T14:53:09.867Z,16.73
2022-08-22T14:54:21.261Z,16.73
2022-08-22T14:55:26.101Z,16.92
2022-08-22T14:56:27.790Z,15.97
2022-08-22T14:57:24.870Z,15.35
2022-08-22T15:03:14.355Z,18.40
2022-08-22T15:04:18.864Z,17.85
2022-08-22T15:05:22.817Z,18.15
2022-08-22T15:06:48.104Z,18.73
2022-08-22T15:07:55.091Z,18.38
2022-08-22T15:08:53.816Z,18.90
2022-08-22T15:10:01.196Z,18.42
2022-08-22T15:11:18.264Z,18.00
2022-08-22T15:12:24.367Z,18.90
2022-08-22T15:13:25.164Z,19.10
2022-08-22T15:14:44.764Z,17.73
2022-08-22T15:15:54.381Z,18.35
2022-08-22T15:16:55.003Z,17.88
2022-08-22T15:17:51.722Z,18.25
2022-08-22T15:18:51.757Z,18.50
2022-08-22T15:19:49.092Z,18.92
2022-08-22T15:21:06.749Z,19.55
2022-08-22T15:22:15.077Z,18.73
2022-08-22T15:23:23.298Z,17.80
2022-08-22T15:24:21.101Z,18.52
2022-08-22T15:25:23.806Z,17.83
2022-08-22T15:26:28.767Z,17.88
2022-08-22T15:27:27.695Z,17.42
2022-08-22T15:28:25.961Z,16.60
2022-08-22T15:29:29.096Z,16.30
2022-08-22T15:30:44.531Z,16.77
2022-08-22T15:31:43.585Z,16.80
2022-08-22T15:32:45.434Z,16.70
2022-08-22T15:33:46.016Z,16.90
2022-08-22T15:34:45.957Z,16.55
2022-08-22T15:35:45.090Z,16.50
2022-08-22T15:37:08.381Z,18.40
2022-08-22T15:38:24.091Z,17.85
2022-08-22T15:39:35.616Z,17.55
2022-08-22T15:40:42.040Z,16.73
2022-08-22T15:41:45.569Z,17.08
2022-08-22T15:42:47.591Z,17.25
2022-08-22T15:43:49.258Z,16.88
2022-08-22T15:44:46.847Z,17.53
2022-08-22T15:45:44.091Z,17.40
2022-08-22T15:47:06.278Z,17.60
2022-08-22T15:48:24.470Z,17.95
2022-08-22T15:49:21.010Z,16.77
2022-08-22T15:51:15.039Z,16.95
2022-08-22T15:52:27.333Z,17.23
2022-08-22T15:53:33.544Z,17.10
2022-08-22T15:55:14.441Z,18.27
2022-08-22T15:56:11.065Z,16.50
2022-08-22T15:57:10.731Z,15.60
2022-08-22T15:58:13.158Z,16.75
2022-08-22T15:59:18.109Z,15.35
2022-08-22T16:00:36.137Z,16.40
2022-08-22T16:01:52.127Z,16.73
2022-08-22T16:03:02.999Z,16.88
2022-08-22T16:04:06.741Z,16.25
2022-08-22T16:05:08.965Z,16.95